sensor_id;sensor_type;location;lat;lon;timestamp;pressure;altitude;pressure_sealevel;temperature;humidity
55538;BME280;41383;51.418;7.286;2022-07-03T00:02:22;100022.09;;;19.76;55.55
55538;BME280;41383;51.418;7.286;2022-07-03T00:04:47;100014.91;;;19.66;56.00
55538;BME280;41383;51.418;7.286;2022-07-03T00:07:12;100016.63;;;19.53;56.32
55538;BME280;41383;51.418;7.286;2022-07-03T00:09:38;100022.28;;;19.39;56.71
55538;BME280;41383;51.418;7.286;2022-07-03T00:12:03;100005.38;;;19.41;56.74
55538;BME280;41383;51.418;7.286;2022-07-03T00:14:29;100006.34;;;19.36;57.45
55538;BME280;41383;51.418;7.286;2022-07-03T00:16:54;100006.25;;;19.18;56.86
55538;BME280;41383;51.418;7.286;2022-07-03T00:19:19;99998.84;;;19.28;57.03
55538;BME280;41383;51.418;7.286;2022-07-03T00:21:46;100007.72;;;19.16;57.60
55538;BME280;41383;51.418;7.286;2022-07-03T00:24:16;100003.38;;;19.00;57.11
55538;BME280;41383;51.418;7.286;2022-07-03T00:26:44;100004.38;;;19.05;57.45
55538;BME280;41383;51.418;7.286;2022-07-03T00:29:14;100002.03;;;18.98;57.94
55538;BME280;41383;51.418;7.286;2022-07-03T00:31:40;99997.78;;;18.92;57.92
55538;BME280;41383;51.418;7.286;2022-07-03T00:34:06;100004.13;;;18.92;57.99
55538;BME280;41383;51.418;7.286;2022-07-03T00:36:36;100007.47;;;18.80;58.33
55538;BME280;41383;51.418;7.286;2022-07-03T00:39:02;100002.28;;;18.78;58.46
55538;BME280;41383;51.418;7.286;2022-07-03T00:41:28;100004.72;;;18.80;58.43
55538;BME280;41383;51.418;7.286;2022-07-03T00:43:54;100004.03;;;18.74;58.66
55538;BME280;41383;51.418;7.286;2022-07-03T00:46:21;100008.13;;;18.77;58.63
55538;BME280;41383;51.418;7.286;2022-07-03T00:48:46;99997.84;;;18.77;58.54
55538;BME280;41383;51.418;7.286;2022-07-03T00:51:14;100003.38;;;18.77;58.82
55538;BME280;41383;51.418;7.286;2022-07-03T00:53:40;100004.59;;;18.85;59.07
55538;BME280;41383;51.418;7.286;2022-07-03T00:56:06;100007.84;;;18.87;58.76
55538;BME280;41383;51.418;7.286;2022-07-03T00:58:34;100002.50;;;18.91;59.20
55538;BME280;41383;51.418;7.286;2022-07-03T01:00:59;100008.91;;;19.00;59.66
55538;BME280;41383;51.418;7.286;2022-07-03T01:03:25;100007.41;;;19.17;58.75
55538;BME280;41383;51.418;7.286;2022-07-03T01:05:52;100016.69;;;19.21;58.61
55538;BME280;41383;51.418;7.286;2022-07-03T01:16:22;99992.63;;;18.99;58.14
55538;BME280;41383;51.418;7.286;2022-07-03T01:18:53;99990.06;;;19.02;56.75
55538;BME280;41383;51.418;7.286;2022-07-03T01:21:30;99981.38;;;19.18;56.84
55538;BME280;41383;51.418;7.286;2022-07-03T01:24:10;99980.38;;;19.14;57.66
55538;BME280;41383;51.418;7.286;2022-07-03T01:26:41;99987.63;;;19.01;57.83
55538;BME280;41383;51.418;7.286;2022-07-03T01:29:07;99984.28;;;18.90;58.15
55538;BME280;41383;51.418;7.286;2022-07-03T01:31:33;99983.44;;;18.81;58.21
55538;BME280;41383;51.418;7.286;2022-07-03T01:33:58;99975.72;;;18.69;58.36
55538;BME280;41383;51.418;7.286;2022-07-03T01:36:23;99982.19;;;18.64;58.57
55538;BME280;41383;51.418;7.286;2022-07-03T01:38:50;99980.09;;;18.70;58.29
55538;BME280;41383;51.418;7.286;2022-07-03T01:41:15;99979.34;;;18.55;58.97
55538;BME280;41383;51.418;7.286;2022-07-03T01:43:52;99976.31;;;18.57;58.81
55538;BME280;41383;51.418;7.286;2022-07-03T01:46:20;99978.16;;;18.47;58.92
55538;BME280;41383;51.418;7.286;2022-07-03T01:48:46;99969.63;;;18.35;59.37
55538;BME280;41383;51.418;7.286;2022-07-03T01:51:16;99974.16;;;18.30;59.77
55538;BME280;41383;51.418;7.286;2022-07-03T01:53:51;99983.06;;;18.27;60.57
55538;BME280;41383;51.418;7.286;2022-07-03T01:56:17;99968.16;;;18.28;59.97
55538;BME280;41383;51.418;7.286;2022-07-03T01:58:43;99976.66;;;18.18;59.93
55538;BME280;41383;51.418;7.286;2022-07-03T02:01:19;99971.03;;;18.09;60.28
55538;BME280;41383;51.418;7.286;2022-07-03T02:04:31;99967.56;;;18.03;60.89
55538;BME280;41383;51.418;7.286;2022-07-03T02:11:24;99961.69;;;17.82;60.84
55538;BME280;41383;51.418;7.286;2022-07-03T02:14:01;99957.91;;;17.92;60.82
55538;BME280;41383;51.418;7.286;2022-07-03T02:16:35;99957.97;;;18.01;60.56
55538;BME280;41383;51.418;7.286;2022-07-03T02:19:03;99953.47;;;18.05;60.03
55538;BME280;41383;51.418;7.286;2022-07-03T02:21:29;99954.78;;;18.07;59.91
55538;BME280;41383;51.418;7.286;2022-07-03T02:26:39;99955.91;;;18.06;60.18
55538;BME280;41383;51.418;7.286;2022-07-03T02:29:06;99952.63;;;18.04;59.78
55538;BME280;41383;51.418;7.286;2022-07-03T02:31:38;99957.91;;;18.15;58.93
55538;BME280;41383;51.418;7.286;2022-07-03T02:34:06;99957.84;;;18.20;58.61
55538;BME280;41383;51.418;7.286;2022-07-03T02:36:31;99969.31;;;17.99;59.67
55538;BME280;41383;51.418;7.286;2022-07-03T02:38:58;99962.94;;;18.13;60.03
55538;BME280;41383;51.418;7.286;2022-07-03T02:41:42;99959.59;;;18.39;60.04
55538;BME280;41383;51.418;7.286;2022-07-03T02:46:41;99958.13;;;18.33;61.30
55538;BME280;41383;51.418;7.286;2022-07-03T02:51:44;99959.06;;;18.14;61.94
55538;BME280;41383;51.418;7.286;2022-07-03T02:54:15;99958.41;;;17.94;62.54
55538;BME280;41383;51.418;7.286;2022-07-03T02:56:52;99950.38;;;17.83;62.48
55538;BME280;41383;51.418;7.286;2022-07-03T02:59:44;99956.69;;;17.70;62.72
55538;BME280;41383;51.418;7.286;2022-07-03T03:04:36;99959.78;;;17.54;62.80
55538;BME280;41383;51.418;7.286;2022-07-03T03:07:17;99964.47;;;17.54;62.42
55538;BME280;41383;51.418;7.286;2022-07-03T03:09:43;99957.34;;;17.53;62.50
55538;BME280;41383;51.418;7.286;2022-07-03T03:12:09;99955.31;;;17.44;62.08
55538;BME280;41383;51.418;7.286;2022-07-03T03:14:38;99961.72;;;17.39;62.04
55538;BME280;41383;51.418;7.286;2022-07-03T03:17:05;99962.44;;;17.31;61.75
55538;BME280;41383;51.418;7.286;2022-07-03T03:19:31;99964.78;;;17.38;61.35
55538;BME280;41383;51.418;7.286;2022-07-03T03:21:58;99961.72;;;17.39;61.08
55538;BME280;41383;51.418;7.286;2022-07-03T03:24:28;99956.72;;;17.42;60.66
55538;BME280;41383;51.418;7.286;2022-07-03T03:26:55;99960.69;;;17.35;61.15
55538;BME280;41383;51.418;7.286;2022-07-03T03:29:21;99966.72;;;17.37;61.56
55538;BME280;41383;51.418;7.286;2022-07-03T03:31:47;99967.22;;;17.39;61.55
55538;BME280;41383;51.418;7.286;2022-07-03T03:34:12;99964.47;;;17.39;61.38
55538;BME280;41383;51.418;7.286;2022-07-03T03:36:38;99954.59;;;17.53;62.23
55538;BME280;41383;51.418;7.286;2022-07-03T03:39:04;99959.78;;;17.54;61.09
55538;BME280;41383;51.418;7.286;2022-07-03T03:41:29;99959.06;;;17.62;60.71
55538;BME280;41383;51.418;7.286;2022-07-03T03:43:55;99962.53;;;17.54;61.53
55538;BME280;41383;51.418;7.286;2022-07-03T03:46:20;99962.66;;;17.49;61.70
55538;BME280;41383;51.418;7.286;2022-07-03T03:48:45;99966.00;;;17.60;61.35
55538;BME280;41383;51.418;7.286;2022-07-03T03:51:12;99966.50;;;17.62;61.27
55538;BME280;41383;51.418;7.286;2022-07-03T03:53:37;99964.06;;;17.60;62.12
55538;BME280;41383;51.418;7.286;2022-07-03T03:56:04;99965.78;;;17.70;61.76
55538;BME280;41383;51.418;7.286;2022-07-03T03:58:30;99959.66;;;17.59;61.82
55538;BME280;41383;51.418;7.286;2022-07-03T04:00:56;99962.00;;;17.66;62.04
55538;BME280;41383;51.418;7.286;2022-07-03T04:03:21;99961.59;;;17.73;61.55
55538;BME280;41383;51.418;7.286;2022-07-03T04:05:47;99966.09;;;17.83;62.17
55538;BME280;41383;51.418;7.286;2022-07-03T04:08:12;99963.28;;;17.97;61.98
55538;BME280;41383;51.418;7.286;2022-07-03T04:10:38;99965.41;;;18.14;62.56
55538;BME280;41383;51.418;7.286;2022-07-03T04:13:03;99959.22;;;18.31;62.19
55538;BME280;41383;51.418;7.286;2022-07-03T04:15:28;99964.97;;;18.21;61.90
55538;BME280;41383;51.418;7.286;2022-07-03T04:17:53;99957.34;;;18.41;61.62
55538;BME280;41383;51.418;7.286;2022-07-03T04:20:19;99956.09;;;18.47;61.49
55538;BME280;41383;51.418;7.286;2022-07-03T04:22:44;99957.47;;;18.59;61.22
55538;BME280;41383;51.418;7.286;2022-07-03T04:25:09;99961.19;;;18.54;61.43
55538;BME280;41383;51.418;7.286;2022-07-03T04:27:34;99961.84;;;18.37;61.96
55538;BME280;41383;51.418;7.286;2022-07-03T04:29:59;99963.50;;;18.38;61.73
55538;BME280;41383;51.418;7.286;2022-07-03T04:32:24;99963.19;;;18.39;61.34
55538;BME280;41383;51.418;7.286;2022-07-03T04:34:50;99971.63;;;18.43;61.75
55538;BME280;41383;51.418;7.286;2022-07-03T04:37:15;99971.41;;;18.53;62.37
55538;BME280;41383;51.418;7.286;2022-07-03T04:39:40;99971.31;;;18.67;62.23
55538;BME280;41383;51.418;7.286;2022-07-03T04:42:05;99978.41;;;18.83;61.23
55538;BME280;41383;51.418;7.286;2022-07-03T04:44:30;99979.59;;;18.90;62.01
55538;BME280;41383;51.418;7.286;2022-07-03T04:46:56;99978.78;;;18.90;57.02
55538;BME280;41383;51.418;7.286;2022-07-03T04:49:21;99983.03;;;19.19;56.45
55538;BME280;41383;51.418;7.286;2022-07-03T04:51:46;99983.25;;;19.32;54.94
55538;BME280;41383;51.418;7.286;2022-07-03T04:54:11;99985.72;;;19.51;54.68
55538;BME280;41383;51.418;7.286;2022-07-03T04:56:36;99980.13;;;19.83;55.03
55538;BME280;41383;51.418;7.286;2022-07-03T04:59:02;99975.91;;;19.94;54.29
55538;BME280;41383;51.418;7.286;2022-07-03T05:01:27;99988.47;;;20.10;54.43
55538;BME280;41383;51.418;7.286;2022-07-03T05:03:52;99986.38;;;20.15;53.05
55538;BME280;41383;51.418;7.286;2022-07-03T05:06:17;99980.63;;;19.85;53.70
55538;BME280;41383;51.418;7.286;2022-07-03T05:08:42;99983.00;;;19.69;53.88
55538;BME280;41383;51.418;7.286;2022-07-03T05:11:07;99989.34;;;19.60;53.86
55538;BME280;41383;51.418;7.286;2022-07-03T05:13:33;99991.50;;;19.73;54.41
55538;BME280;41383;51.418;7.286;2022-07-03T05:15:58;99992.13;;;19.69;53.95
55538;BME280;41383;51.418;7.286;2022-07-03T05:18:24;99991.00;;;19.70;53.91
55538;BME280;41383;51.418;7.286;2022-07-03T05:20:49;99981.88;;;19.70;53.85
55538;BME280;41383;51.418;7.286;2022-07-03T05:23:14;99991.97;;;19.66;54.08
55538;BME280;41383;51.418;7.286;2022-07-03T05:25:39;99978.47;;;19.73;53.91
55538;BME280;41383;51.418;7.286;2022-07-03T05:28:05;99988.06;;;19.76;53.99
55538;BME280;41383;51.418;7.286;2022-07-03T05:30:30;99980.47;;;19.90;53.90
55538;BME280;41383;51.418;7.286;2022-07-03T05:32:55;99988.50;;;20.18;53.49
55538;BME280;41383;51.418;7.286;2022-07-03T05:35:21;99986.38;;;20.33;53.00
55538;BME280;41383;51.418;7.286;2022-07-03T05:37:46;99991.44;;;20.40;53.12
55538;BME280;41383;51.418;7.286;2022-07-03T05:40:11;99988.31;;;20.59;52.49
55538;BME280;41383;51.418;7.286;2022-07-03T05:42:36;99989.47;;;20.58;53.31
55538;BME280;41383;51.418;7.286;2022-07-03T05:45:02;99991.41;;;20.58;53.86
55538;BME280;41383;51.418;7.286;2022-07-03T05:47:27;100013.41;;;20.36;55.64
55538;BME280;41383;51.418;7.286;2022-07-03T05:49:53;100011.69;;;19.82;57.76
55538;BME280;41383;51.418;7.286;2022-07-03T05:52:18;100019.81;;;19.87;57.80
55538;BME280;41383;51.418;7.286;2022-07-03T05:54:43;100018.66;;;19.70;57.72
55538;BME280;41383;51.418;7.286;2022-07-03T05:57:08;100018.91;;;19.42;57.67
55538;BME280;41383;51.418;7.286;2022-07-03T05:59:33;100029.16;;;19.51;57.53
55538;BME280;41383;51.418;7.286;2022-07-03T06:01:59;100033.00;;;19.32;58.37
55538;BME280;41383;51.418;7.286;2022-07-03T06:04:24;100030.31;;;18.95;59.34
55538;BME280;41383;51.418;7.286;2022-07-03T06:06:49;100034.13;;;19.08;58.59
55538;BME280;41383;51.418;7.286;2022-07-03T06:09:14;100032.66;;;19.33;57.81
55538;BME280;41383;51.418;7.286;2022-07-03T06:11:39;100036.59;;;19.41;57.82
55538;BME280;41383;51.418;7.286;2022-07-03T06:14:05;100040.69;;;19.53;57.57
55538;BME280;41383;51.418;7.286;2022-07-03T06:16:30;100039.13;;;19.29;58.12
55538;BME280;41383;51.418;7.286;2022-07-03T06:18:55;100038.25;;;19.42;57.91
55538;BME280;41383;51.418;7.286;2022-07-03T06:21:20;100045.44;;;19.61;57.70
55538;BME280;41383;51.418;7.286;2022-07-03T06:23:46;100045.31;;;19.66;57.97
55538;BME280;41383;51.418;7.286;2022-07-03T06:26:11;100035.56;;;19.69;57.64
55538;BME280;41383;51.418;7.286;2022-07-03T06:28:36;100039.69;;;19.89;57.48
55538;BME280;41383;51.418;7.286;2022-07-03T06:31:01;100040.38;;;20.04;56.98
55538;BME280;41383;51.418;7.286;2022-07-03T06:33:27;100044.75;;;19.96;57.10
55538;BME280;41383;51.418;7.286;2022-07-03T06:35:52;100037.31;;;20.05;57.42
55538;BME280;41383;51.418;7.286;2022-07-03T06:38:17;100033.25;;;20.21;57.08
55538;BME280;41383;51.418;7.286;2022-07-03T06:40:42;100041.53;;;20.03;56.62
55538;BME280;41383;51.418;7.286;2022-07-03T06:43:07;100046.88;;;19.99;57.08
55538;BME280;41383;51.418;7.286;2022-07-03T06:45:33;100045.50;;;20.20;56.63
55538;BME280;41383;51.418;7.286;2022-07-03T06:47:58;100043.53;;;20.11;56.40
55538;BME280;41383;51.418;7.286;2022-07-03T06:50:23;100034.41;;;20.20;56.37
55538;BME280;41383;51.418;7.286;2022-07-03T06:52:48;100037.84;;;20.25;55.80
55538;BME280;41383;51.418;7.286;2022-07-03T06:55:14;100042.38;;;20.30;56.14
55538;BME280;41383;51.418;7.286;2022-07-03T06:57:39;100051.03;;;20.37;55.82
55538;BME280;41383;51.418;7.286;2022-07-03T07:00:05;100047.59;;;20.40;55.73
55538;BME280;41383;51.418;7.286;2022-07-03T07:02:31;100045.97;;;20.57;55.37
55538;BME280;41383;51.418;7.286;2022-07-03T07:04:56;100054.44;;;20.70;55.39
55538;BME280;41383;51.418;7.286;2022-07-03T07:07:21;100044.31;;;20.83;54.68
55538;BME280;41383;51.418;7.286;2022-07-03T07:09:46;100047.75;;;20.71;54.70
55538;BME280;41383;51.418;7.286;2022-07-03T07:12:11;100048.72;;;20.75;54.45
55538;BME280;41383;51.418;7.286;2022-07-03T07:14:36;100051.50;;;20.75;55.08
55538;BME280;41383;51.418;7.286;2022-07-03T07:17:02;100049.56;;;20.84;54.59
55538;BME280;41383;51.418;7.286;2022-07-03T07:19:27;100059.81;;;20.93;54.59
55538;BME280;41383;51.418;7.286;2022-07-03T07:21:52;100058.66;;;20.94;54.87
55538;BME280;41383;51.418;7.286;2022-07-03T07:24:17;100056.38;;;20.96;54.33
55538;BME280;41383;51.418;7.286;2022-07-03T07:26:42;100057.38;;;21.00;53.92
55538;BME280;41383;51.418;7.286;2022-07-03T07:29:08;100062.91;;;20.82;54.54
55538;BME280;41383;51.418;7.286;2022-07-03T07:31:33;100046.97;;;20.97;54.49
55538;BME280;41383;51.418;7.286;2022-07-03T07:33:58;100049.84;;;21.09;54.23
55538;BME280;41383;51.418;7.286;2022-07-03T07:36:23;100051.50;;;21.10;53.47
55538;BME280;41383;51.418;7.286;2022-07-03T07:38:49;100048.22;;;21.08;53.71
55538;BME280;41383;51.418;7.286;2022-07-03T07:41:14;100045.94;;;21.19;53.19
55538;BME280;41383;51.418;7.286;2022-07-03T07:43:39;100043.94;;;21.29;53.37
55538;BME280;41383;51.418;7.286;2022-07-03T07:46:04;100049.94;;;21.40;53.24
55538;BME280;41383;51.418;7.286;2022-07-03T07:48:29;100047.63;;;21.42;53.19
55538;BME280;41383;51.418;7.286;2022-07-03T07:50:56;100044.22;;;21.45;52.95
55538;BME280;41383;51.418;7.286;2022-07-03T07:53:21;100043.97;;;21.59;52.88
55538;BME280;41383;51.418;7.286;2022-07-03T07:55:46;100040.34;;;21.67;52.52
55538;BME280;41383;51.418;7.286;2022-07-03T07:58:11;100040.53;;;21.62;51.05
55538;BME280;41383;51.418;7.286;2022-07-03T08:00:36;100040.50;;;21.71;50.66
55538;BME280;41383;51.418;7.286;2022-07-03T08:03:22;100038.34;;;21.86;51.36
55538;BME280;41383;51.418;7.286;2022-07-03T08:06:06;100038.34;;;21.77;50.64
55538;BME280;41383;51.418;7.286;2022-07-03T08:08:31;100042.72;;;21.87;50.28
55538;BME280;41383;51.418;7.286;2022-07-03T08:10:56;100043.28;;;22.01;50.08
55538;BME280;41383;51.418;7.286;2022-07-03T08:13:21;100039.19;;;22.08;49.85
55538;BME280;41383;51.418;7.286;2022-07-03T08:15:46;100043.03;;;22.15;49.92
55538;BME280;41383;51.418;7.286;2022-07-03T08:18:12;100041.56;;;22.18;49.73
55538;BME280;41383;51.418;7.286;2022-07-03T08:20:37;100042.16;;;22.24;49.79
55538;BME280;41383;51.418;7.286;2022-07-03T08:23:02;100036.34;;;22.38;49.76
55538;BME280;41383;51.418;7.286;2022-07-03T08:25:28;100031.94;;;22.37;49.59
55538;BME280;41383;51.418;7.286;2022-07-03T08:27:54;100034.63;;;22.46;49.60
55538;BME280;41383;51.418;7.286;2022-07-03T08:30:20;100035.06;;;22.57;49.99
55538;BME280;41383;51.418;7.286;2022-07-03T08:32:49;100035.75;;;22.54;49.23
55538;BME280;41383;51.418;7.286;2022-07-03T08:35:14;100039.41;;;22.67;49.22
55538;BME280;41383;51.418;7.286;2022-07-03T08:37:40;100027.28;;;22.71;49.35
55538;BME280;41383;51.418;7.286;2022-07-03T08:40:12;100037.63;;;22.83;49.28
55538;BME280;41383;51.418;7.286;2022-07-03T08:42:37;100033.94;;;22.92;49.20
55538;BME280;41383;51.418;7.286;2022-07-03T08:45:06;100032.81;;;23.05;48.50
55538;BME280;41383;51.418;7.286;2022-07-03T08:47:32;100042.91;;;23.10;47.79
55538;BME280;41383;51.418;7.286;2022-07-03T08:49:58;100045.38;;;23.24;47.17
55538;BME280;41383;51.418;7.286;2022-07-03T08:52:25;100035.06;;;23.37;46.88
55538;BME280;41383;51.418;7.286;2022-07-03T08:54:51;100036.38;;;23.52;47.05
55538;BME280;41383;51.418;7.286;2022-07-03T08:57:16;100038.59;;;23.47;46.19
55538;BME280;41383;51.418;7.286;2022-07-03T08:59:41;100042.41;;;23.67;46.54
55538;BME280;41383;51.418;7.286;2022-07-03T09:02:07;100035.00;;;23.71;45.84
55538;BME280;41383;51.418;7.286;2022-07-03T09:04:32;100045.53;;;23.90;45.62
55538;BME280;41383;51.418;7.286;2022-07-03T09:06:58;100041.59;;;24.04;44.80
55538;BME280;41383;51.418;7.286;2022-07-03T09:09:23;100038.34;;;24.02;44.65
55538;BME280;41383;51.418;7.286;2022-07-03T09:11:49;100037.59;;;24.18;45.11
55538;BME280;41383;51.418;7.286;2022-07-03T09:14:14;100044.34;;;24.29;44.11
55538;BME280;41383;51.418;7.286;2022-07-03T09:16:39;100048.94;;;24.37;44.13
55538;BME280;41383;51.418;7.286;2022-07-03T09:19:05;100050.59;;;24.39;44.36
55538;BME280;41383;51.418;7.286;2022-07-03T09:24:06;100042.16;;;24.51;44.08
55538;BME280;41383;51.418;7.286;2022-07-03T09:26:31;100046.38;;;24.74;43.94
55538;BME280;41383;51.418;7.286;2022-07-03T09:28:56;100049.53;;;24.72;43.93
55538;BME280;41383;51.418;7.286;2022-07-03T09:31:22;100046.41;;;24.90;44.06
55538;BME280;41383;51.418;7.286;2022-07-03T09:33:56;100050.59;;;24.96;42.67
55538;BME280;41383;51.418;7.286;2022-07-03T09:36:22;100045.34;;;24.94;43.42
55538;BME280;41383;51.418;7.286;2022-07-03T09:38:48;100041.66;;;25.19;42.62
55538;BME280;41383;51.418;7.286;2022-07-03T09:41:13;100052.13;;;24.93;43.34
55538;BME280;41383;51.418;7.286;2022-07-03T09:43:42;100041.25;;;25.04;42.97
55538;BME280;41383;51.418;7.286;2022-07-03T09:46:08;100046.25;;;25.27;43.05
55538;BME280;41383;51.418;7.286;2022-07-03T09:48:38;100048.06;;;25.52;43.34
55538;BME280;41383;51.418;7.286;2022-07-03T09:51:14;100042.56;;;25.56;42.25
55538;BME280;41383;51.418;7.286;2022-07-03T09:53:43;100047.16;;;25.32;42.18
55538;BME280;41383;51.418;7.286;2022-07-03T09:56:08;100045.50;;;25.47;42.30
55538;BME280;41383;51.418;7.286;2022-07-03T09:58:33;100057.38;;;25.11;42.00
55538;BME280;41383;51.418;7.286;2022-07-03T10:01:14;100041.47;;;25.44;42.14
55538;BME280;41383;51.418;7.286;2022-07-03T10:03:39;100037.78;;;25.88;42.55
55538;BME280;41383;51.418;7.286;2022-07-03T10:06:05;100032.09;;;25.85;41.95
55538;BME280;41383;51.418;7.286;2022-07-03T10:08:30;100030.94;;;25.53;42.05
55538;BME280;41383;51.418;7.286;2022-07-03T10:10:55;100038.75;;;25.64;42.01
55538;BME280;41383;51.418;7.286;2022-07-03T10:13:20;100040.13;;;25.86;41.61
55538;BME280;41383;51.418;7.286;2022-07-03T10:15:46;100044.44;;;26.20;41.12
55538;BME280;41383;51.418;7.286;2022-07-03T10:18:12;100029.59;;;26.16;40.32
55538;BME280;41383;51.418;7.286;2022-07-03T10:23:09;100033.22;;;26.36;39.22
55538;BME280;41383;51.418;7.286;2022-07-03T10:25:34;100026.13;;;26.22;39.69
55538;BME280;41383;51.418;7.286;2022-07-03T10:28:00;100041.50;;;26.32;39.76
55538;BME280;41383;51.418;7.286;2022-07-03T10:30:25;100035.13;;;26.32;39.95
55538;BME280;41383;51.418;7.286;2022-07-03T10:32:51;100037.91;;;26.32;39.79
55538;BME280;41383;51.418;7.286;2022-07-03T10:35:21;100035.75;;;26.41;40.02
55538;BME280;41383;51.418;7.286;2022-07-03T10:40:20;100039.03;;;26.87;40.88
55538;BME280;41383;51.418;7.286;2022-07-03T10:43:09;100033.91;;;27.12;39.67
55538;BME280;41383;51.418;7.286;2022-07-03T10:46:15;100028.44;;;27.20;40.14
55538;BME280;41383;51.418;7.286;2022-07-03T10:48:56;100033.22;;;26.76;39.04
55538;BME280;41383;51.418;7.286;2022-07-03T10:51:22;100030.25;;;27.08;38.77
55538;BME280;41383;51.418;7.286;2022-07-03T10:53:47;100037.47;;;27.33;37.75
55538;BME280;41383;51.418;7.286;2022-07-03T10:56:13;100033.84;;;27.32;38.14
55538;BME280;41383;51.418;7.286;2022-07-03T10:58:55;100035.50;;;27.13;39.07
55538;BME280;41383;51.418;7.286;2022-07-03T11:01:27;100033.63;;;26.54;39.23
55538;BME280;41383;51.418;7.286;2022-07-03T11:03:53;100026.22;;;26.86;39.06
55538;BME280;41383;51.418;7.286;2022-07-03T11:06:48;100030.31;;;27.35;38.09
55538;BME280;41383;51.418;7.286;2022-07-03T11:09:08;100035.25;;;26.99;38.38
55538;BME280;41383;51.418;7.286;2022-07-03T11:11:39;100027.22;;;27.17;38.59
55538;BME280;41383;51.418;7.286;2022-07-03T11:14:21;100019.56;;;27.65;37.61
55538;BME280;41383;51.418;7.286;2022-07-03T11:16:46;100015.75;;;27.26;38.27
55538;BME280;41383;51.418;7.286;2022-07-03T11:19:11;100015.25;;;27.44;37.56
55538;BME280;41383;51.418;7.286;2022-07-03T11:21:37;100020.72;;;27.36;38.36
55538;BME280;41383;51.418;7.286;2022-07-03T11:26:31;100007.25;;;27.19;37.91
55538;BME280;41383;51.418;7.286;2022-07-03T11:28:57;100013.38;;;27.28;37.87
55538;BME280;41383;51.418;7.286;2022-07-03T11:31:24;100013.47;;;27.82;37.27
55538;BME280;41383;51.418;7.286;2022-07-03T11:39:02;100009.50;;;28.45;35.62
55538;BME280;41383;51.418;7.286;2022-07-03T11:41:49;100015.19;;;27.40;37.00
55538;BME280;41383;51.418;7.286;2022-07-03T11:44:14;100012.72;;;27.11;37.54
55538;BME280;41383;51.418;7.286;2022-07-03T11:46:40;100013.88;;;27.57;37.43
55538;BME280;41383;51.418;7.286;2022-07-03T11:49:06;100011.88;;;27.85;35.04
55538;BME280;41383;51.418;7.286;2022-07-03T11:51:31;100013.19;;;28.22;34.58
55538;BME280;41383;51.418;7.286;2022-07-03T11:53:56;100011.69;;;28.63;34.14
55538;BME280;41383;51.418;7.286;2022-07-03T11:56:22;100026.56;;;28.67;34.34
55538;BME280;41383;51.418;7.286;2022-07-03T12:03:46;100013.38;;;27.28;36.63
55538;BME280;41383;51.418;7.286;2022-07-03T12:06:12;100014.34;;;27.87;36.13
55538;BME280;41383;51.418;7.286;2022-07-03T12:08:37;100010.34;;;28.49;34.69
55538;BME280;41383;51.418;7.286;2022-07-03T12:11:09;100010.75;;;28.86;34.24
55538;BME280;41383;51.418;7.286;2022-07-03T12:13:34;100011.03;;;29.15;34.14
55538;BME280;41383;51.418;7.286;2022-07-03T12:16:10;100013.28;;;28.98;32.76
55538;BME280;41383;51.418;7.286;2022-07-03T12:18:52;100012.09;;;28.30;34.22
55538;BME280;41383;51.418;7.286;2022-07-03T12:21:19;100003.81;;;27.29;35.63
55538;BME280;41383;51.418;7.286;2022-07-03T12:26:09;100002.88;;;27.45;36.13
55538;BME280;41383;51.418;7.286;2022-07-03T12:28:35;100001.59;;;28.24;35.33
55538;BME280;41383;51.418;7.286;2022-07-03T12:31:00;99997.75;;;28.70;34.65
55538;BME280;41383;51.418;7.286;2022-07-03T12:33:26;99995.66;;;29.01;34.49
55538;BME280;41383;51.418;7.286;2022-07-03T12:36:04;99985.47;;;28.82;34.13
55538;BME280;41383;51.418;7.286;2022-07-03T12:38:30;99988.78;;;28.23;35.02
55538;BME280;41383;51.418;7.286;2022-07-03T12:41:04;99983.53;;;27.87;35.61
55538;BME280;41383;51.418;7.286;2022-07-03T12:43:39;99990.88;;;27.99;34.81
55538;BME280;41383;51.418;7.286;2022-07-03T12:48:57;99985.75;;;28.04;34.66
55538;BME280;41383;51.418;7.286;2022-07-03T12:51:36;99987.50;;;27.85;34.68
55538;BME280;41383;51.418;7.286;2022-07-03T12:54:03;99979.88;;;27.82;34.44
55538;BME280;41383;51.418;7.286;2022-07-03T12:56:28;99977.78;;;27.52;35.02
55538;BME280;41383;51.418;7.286;2022-07-03T12:58:53;99975.00;;;28.10;34.13
55538;BME280;41383;51.418;7.286;2022-07-03T13:01:37;99983.06;;;28.15;33.94
55538;BME280;41383;51.418;7.286;2022-07-03T13:04:02;99979.25;;;28.62;33.10
55538;BME280;41383;51.418;7.286;2022-07-03T13:06:28;99982.38;;;27.91;34.75
55538;BME280;41383;51.418;7.286;2022-07-03T13:11:38;99991.13;;;27.35;35.74
55538;BME280;41383;51.418;7.286;2022-07-03T13:16:35;99992.00;;;27.39;35.57
55538;BME280;41383;51.418;7.286;2022-07-03T13:19:00;99992.94;;;27.24;35.29
55538;BME280;41383;51.418;7.286;2022-07-03T13:21:26;99985.69;;;26.76;36.17
55538;BME280;41383;51.418;7.286;2022-07-03T13:23:51;99983.78;;;27.03;35.65
55538;BME280;41383;51.418;7.286;2022-07-03T13:26:16;99984.03;;;27.42;35.17
55538;BME280;41383;51.418;7.286;2022-07-03T13:28:42;99982.19;;;27.26;35.06
55538;BME280;41383;51.418;7.286;2022-07-03T13:31:07;99984.78;;;27.38;35.24
55538;BME280;41383;51.418;7.286;2022-07-03T13:33:32;99984.94;;;28.04;34.00
55538;BME280;41383;51.418;7.286;2022-07-03T13:35:57;99976.78;;;28.26;33.89
55538;BME280;41383;51.418;7.286;2022-07-03T13:38:22;99978.84;;;27.71;34.14
55538;BME280;41383;51.418;7.286;2022-07-03T13:40:47;99989.06;;;27.83;34.18
55538;BME280;41383;51.418;7.286;2022-07-03T13:43:13;99990.16;;;27.51;34.92
55538;BME280;41383;51.418;7.286;2022-07-03T13:45:38;99991.63;;;27.18;35.78
55538;BME280;41383;51.418;7.286;2022-07-03T13:48:03;100001.38;;;27.04;36.20
55538;BME280;41383;51.418;7.286;2022-07-03T13:50:28;99991.13;;;27.62;35.30